sensor_id;sensor_type;location;lat;lon;timestamp;P1;durP1;ratioP1;P2;durP2;ratioP2
40314;SDS011;26021;45.640;11.302;2022-07-23T00:01:33;10.45;;;8.88;;
40314;SDS011;26021;45.640;11.302;2022-07-23T00:03:59;9.18;;;8.27;;
40314;SDS011;26021;45.640;11.302;2022-07-23T00:06:24;10.65;;;9.00;;
40314;SDS011;26021;45.640;11.302;2022-07-23T00:08:50;9.85;;;8.90;;
40314;SDS011;26021;45.640;11.302;2022-07-23T00:11:16;9.85;;;8.85;;
40314;SDS011;26021;45.640;11.302;2022-07-23T00:13:42;11.70;;;9.23;;
40314;SDS011;26021;45.640;11.302;2022-07-23T00:16:08;10.70;;;9.70;;
40314;SDS011;26021;45.640;11.302;2022-07-23T00:18:34;9.70;;;8.82;;
40314;SDS011;26021;45.640;11.302;2022-07-23T00:20:59;9.55;;;8.50;;
40314;SDS011;26021;45.640;11.302;2022-07-23T00:23:24;10.48;;;9.10;;
40314;SDS011;26021;45.640;11.302;2022-07-23T00:25:51;13.93;;;8.23;;
40314;SDS011;26021;45.640;11.302;2022-07-23T00:28:17;11.40;;;9.00;;
40314;SDS011;26021;45.640;11.302;2022-07-23T00:30:43;10.98;;;9.25;;
40314;SDS011;26021;45.640;11.302;2022-07-23T00:33:09;11.30;;;9.10;;
40314;SDS011;26021;45.640;11.302;2022-07-23T00:35:36;10.55;;;9.27;;
40314;SDS011;26021;45.640;11.302;2022-07-23T00:38:06;10.27;;;9.15;;
40314;SDS011;26021;45.640;11.302;2022-07-23T00:40:33;9.85;;;9.00;;
40314;SDS011;26021;45.640;11.302;2022-07-23T00:42:59;10.40;;;9.25;;
40314;SDS011;26021;45.640;11.302;2022-07-23T00:45:25;9.95;;;8.95;;
40314;SDS011;26021;45.640;11.302;2022-07-23T00:47:51;10.60;;;9.63;;
40314;SDS011;26021;45.640;11.302;2022-07-23T00:50:17;10.27;;;9.30;;
40314;SDS011;26021;45.640;11.302;2022-07-23T00:52:42;10.23;;;9.20;;
40314;SDS011;26021;45.640;11.302;2022-07-23T00:55:09;10.85;;;9.18;;
40314;SDS011;26021;45.640;11.302;2022-07-23T00:57:36;10.82;;;9.25;;
40314;SDS011;26021;45.640;11.302;2022-07-23T01:00:04;9.48;;;8.60;;
40314;SDS011;26021;45.640;11.302;2022-07-23T01:02:30;11.15;;;9.07;;
40314;SDS011;26021;45.640;11.302;2022-07-23T01:04:56;10.98;;;8.82;;
40314;SDS011;26021;45.640;11.302;2022-07-23T01:07:21;11.85;;;9.32;;
40314;SDS011;26021;45.640;11.302;2022-07-23T01:09:48;10.18;;;9.18;;
40314;SDS011;26021;45.640;11.302;2022-07-23T01:12:14;10.00;;;8.88;;
40314;SDS011;26021;45.640;11.302;2022-07-23T01:14:39;11.02;;;9.25;;
40314;SDS011;26021;45.640;11.302;2022-07-23T01:17:05;9.77;;;8.88;;
40314;SDS011;26021;45.640;11.302;2022-07-23T01:19:30;10.50;;;8.63;;
40314;SDS011;26021;45.640;11.302;2022-07-23T01:21:57;12.32;;;9.25;;
40314;SDS011;26021;45.640;11.302;2022-07-23T01:24:23;9.82;;;8.82;;
40314;SDS011;26021;45.640;11.302;2022-07-23T01:26:49;10.65;;;9.60;;
40314;SDS011;26021;45.640;11.302;2022-07-23T01:29:15;10.05;;;9.15;;
40314;SDS011;26021;45.640;11.302;2022-07-23T01:31:41;10.45;;;8.90;;
40314;SDS011;26021;45.640;11.302;2022-07-23T01:34:06;10.98;;;8.93;;
40314;SDS011;26021;45.640;11.302;2022-07-23T01:36:35;10.00;;;8.80;;
40314;SDS011;26021;45.640;11.302;2022-07-23T01:39:02;11.15;;;9.93;;
40314;SDS011;26021;45.640;11.302;2022-07-23T01:41:29;10.93;;;9.63;;
40314;SDS011;26021;45.640;11.302;2022-07-23T01:43:54;10.05;;;8.98;;
40314;SDS011;26021;45.640;11.302;2022-07-23T01:46:20;11.10;;;9.05;;
40314;SDS011;26021;45.640;11.302;2022-07-23T01:48:46;10.57;;;9.45;;
40314;SDS011;26021;45.640;11.302;2022-07-23T01:51:11;10.80;;;9.20;;
40314;SDS011;26021;45.640;11.302;2022-07-23T01:53:37;9.88;;;8.90;;
40314;SDS011;26021;45.640;11.302;2022-07-23T01:56:02;10.65;;;9.52;;
40314;SDS011;26021;45.640;11.302;2022-07-23T01:58:28;10.13;;;9.23;;
40314;SDS011;26021;45.640;11.302;2022-07-23T02:00:54;9.85;;;8.95;;
40314;SDS011;26021;45.640;11.302;2022-07-23T02:03:20;10.82;;;9.68;;
40314;SDS011;26021;45.640;11.302;2022-07-23T02:05:46;10.85;;;9.85;;
40314;SDS011;26021;45.640;11.302;2022-07-23T02:08:11;13.25;;;9.85;;
40314;SDS011;26021;45.640;11.302;2022-07-23T02:10:37;10.98;;;9.48;;
40314;SDS011;26021;45.640;11.302;2022-07-23T02:13:02;10.57;;;9.40;;
40314;SDS011;26021;45.640;11.302;2022-07-23T02:15:28;11.88;;;9.35;;
40314;SDS011;26021;45.640;11.302;2022-07-23T02:17:54;10.70;;;9.45;;
40314;SDS011;26021;45.640;11.302;2022-07-23T02:20:19;10.02;;;8.98;;
40314;SDS011;26021;45.640;11.302;2022-07-23T02:22:45;11.88;;;9.35;;
40314;SDS011;26021;45.640;11.302;2022-07-23T02:25:10;10.02;;;8.98;;
40314;SDS011;26021;45.640;11.302;2022-07-23T02:27:36;10.15;;;9.25;;
40314;SDS011;26021;45.640;11.302;2022-07-23T02:30:02;11.23;;;9.15;;
40314;SDS011;26021;45.640;11.302;2022-07-23T02:32:28;13.68;;;8.98;;
40314;SDS011;26021;45.640;11.302;2022-07-23T02:34:53;11.75;;;9.30;;
40314;SDS011;26021;45.640;11.302;2022-07-23T02:37:19;13.05;;;9.60;;
40314;SDS011;26021;45.640;11.302;2022-07-23T02:39:45;13.23;;;9.25;;
40314;SDS011;26021;45.640;11.302;2022-07-23T02:42:10;15.88;;;8.98;;
40314;SDS011;26021;45.640;11.302;2022-07-23T02:44:36;14.90;;;9.13;;
40314;SDS011;26021;45.640;11.302;2022-07-23T02:47:01;11.13;;;8.68;;
40314;SDS011;26021;45.640;11.302;2022-07-23T02:49:27;11.07;;;9.38;;
40314;SDS011;26021;45.640;11.302;2022-07-23T02:51:52;12.00;;;8.88;;
40314;SDS011;26021;45.640;11.302;2022-07-23T02:54:18;10.93;;;9.85;;
40314;SDS011;26021;45.640;11.302;2022-07-23T02:56:44;13.82;;;9.60;;
40314;SDS011;26021;45.640;11.302;2022-07-23T02:59:09;15.65;;;9.00;;
40314;SDS011;26021;45.640;11.302;2022-07-23T03:01:35;10.43;;;9.15;;
40314;SDS011;26021;45.640;11.302;2022-07-23T03:04:01;11.40;;;9.27;;
40314;SDS011;26021;45.640;11.302;2022-07-23T03:06:27;10.20;;;8.85;;
40314;SDS011;26021;45.640;11.302;2022-07-23T03:08:52;10.32;;;9.25;;
40314;SDS011;26021;45.640;11.302;2022-07-23T03:11:18;10.35;;;9.27;;
40314;SDS011;26021;45.640;11.302;2022-07-23T03:13:43;10.48;;;9.40;;
40314;SDS011;26021;45.640;11.302;2022-07-23T03:16:08;10.35;;;9.38;;
40314;SDS011;26021;45.640;11.302;2022-07-23T03:18:34;9.73;;;8.90;;
40314;SDS011;26021;45.640;11.302;2022-07-23T03:21:00;10.35;;;9.25;;
40314;SDS011;26021;45.640;11.302;2022-07-23T03:23:25;10.43;;;9.13;;
40314;SDS011;26021;45.640;11.302;2022-07-23T03:25:50;9.63;;;8.82;;
40314;SDS011;26021;45.640;11.302;2022-07-23T03:28:17;9.88;;;8.93;;
40314;SDS011;26021;45.640;11.302;2022-07-23T03:30:43;10.90;;;9.75;;
40314;SDS011;26021;45.640;11.302;2022-07-23T03:33:11;11.00;;;9.93;;
40314;SDS011;26021;45.640;11.302;2022-07-23T03:35:38;11.25;;;8.68;;
40314;SDS011;26021;45.640;11.302;2022-07-23T03:38:03;12.00;;;9.05;;
40314;SDS011;26021;45.640;11.302;2022-07-23T03:40:29;11.27;;;9.18;;
40314;SDS011;26021;45.640;11.302;2022-07-23T03:42:54;14.55;;;10.02;;
40314;SDS011;26021;45.640;11.302;2022-07-23T03:45:20;15.05;;;9.35;;
40314;SDS011;26021;45.640;11.302;2022-07-23T03:47:45;10.25;;;9.13;;
40314;SDS011;26021;45.640;11.302;2022-07-23T03:50:11;10.15;;;9.18;;
40314;SDS011;26021;45.640;11.302;2022-07-23T03:52:37;12.80;;;9.77;;
40314;SDS011;26021;45.640;11.302;2022-07-23T03:55:02;10.88;;;9.32;;
40314;SDS011;26021;45.640;11.302;2022-07-23T03:57:28;11.45;;;10.07;;
40314;SDS011;26021;45.640;11.302;2022-07-23T03:59:55;10.52;;;9.63;;
40314;SDS011;26021;45.640;11.302;2022-07-23T04:02:20;10.45;;;9.55;;
40314;SDS011;26021;45.640;11.302;2022-07-23T04:04:46;10.00;;;9.00;;
40314;SDS011;26021;45.640;11.302;2022-07-23T04:07:11;10.65;;;9.65;;
40314;SDS011;26021;45.640;11.302;2022-07-23T04:09:37;12.68;;;9.55;;
40314;SDS011;26021;45.640;11.302;2022-07-23T04:12:05;14.07;;;9.73;;
40314;SDS011;26021;45.640;11.302;2022-07-23T04:14:31;15.90;;;9.48;;
40314;SDS011;26021;45.640;11.302;2022-07-23T04:16:57;9.60;;;8.73;;
40314;SDS011;26021;45.640;11.302;2022-07-23T04:19:22;11.05;;;9.95;;
40314;SDS011;26021;45.640;11.302;2022-07-23T04:21:48;10.73;;;9.70;;
40314;SDS011;26021;45.640;11.302;2022-07-23T04:24:13;10.98;;;9.77;;
40314;SDS011;26021;45.640;11.302;2022-07-23T04:26:39;12.30;;;9.75;;
40314;SDS011;26021;45.640;11.302;2022-07-23T04:29:04;12.30;;;9.52;;
40314;SDS011;26021;45.640;11.302;2022-07-23T04:31:29;9.90;;;8.88;;
40314;SDS011;26021;45.640;11.302;2022-07-23T04:33:55;10.65;;;9.50;;
40314;SDS011;26021;45.640;11.302;2022-07-23T04:36:20;10.95;;;9.77;;
40314;SDS011;26021;45.640;11.302;2022-07-23T04:38:46;10.20;;;9.20;;
40314;SDS011;26021;45.640;11.302;2022-07-23T04:41:11;13.43;;;9.48;;
40314;SDS011;26021;45.640;11.302;2022-07-23T04:43:37;10.10;;;9.10;;
40314;SDS011;26021;45.640;11.302;2022-07-23T04:46:02;9.90;;;8.98;;
40314;SDS011;26021;45.640;11.302;2022-07-23T04:48:28;11.00;;;9.65;;
40314;SDS011;26021;45.640;11.302;2022-07-23T04:50:53;9.65;;;8.75;;
40314;SDS011;26021;45.640;11.302;2022-07-23T04:53:18;11.27;;;10.07;;
40314;SDS011;26021;45.640;11.302;2022-07-23T04:55:44;15.10;;;10.10;;
40314;SDS011;26021;45.640;11.302;2022-07-23T04:58:10;10.18;;;9.18;;
40314;SDS011;26021;45.640;11.302;2022-07-23T05:00:35;9.32;;;8.52;;
40314;SDS011;26021;45.640;11.302;2022-07-23T05:03:01;15.60;;;9.82;;
40314;SDS011;26021;45.640;11.302;2022-07-23T05:05:27;10.15;;;9.25;;
40314;SDS011;26021;45.640;11.302;2022-07-23T05:07:52;11.95;;;9.75;;
40314;SDS011;26021;45.640;11.302;2022-07-23T05:10:17;10.82;;;9.80;;
40314;SDS011;26021;45.640;11.302;2022-07-23T05:12:43;10.35;;;9.07;;
40314;SDS011;26021;45.640;11.302;2022-07-23T05:15:08;10.60;;;9.60;;
40314;SDS011;26021;45.640;11.302;2022-07-23T05:17:34;10.50;;;9.48;;
40314;SDS011;26021;45.640;11.302;2022-07-23T05:19:59;10.98;;;9.57;;
40314;SDS011;26021;45.640;11.302;2022-07-23T05:22:25;13.20;;;10.15;;
40314;SDS011;26021;45.640;11.302;2022-07-23T05:24:50;11.75;;;9.90;;
40314;SDS011;26021;45.640;11.302;2022-07-23T05:27:16;10.93;;;9.80;;
40314;SDS011;26021;45.640;11.302;2022-07-23T05:29:41;10.88;;;9.32;;
40314;SDS011;26021;45.640;11.302;2022-07-23T05:32:07;10.27;;;9.27;;
40314;SDS011;26021;45.640;11.302;2022-07-23T05:34:32;11.00;;;9.70;;
40314;SDS011;26021;45.640;11.302;2022-07-23T05:36:58;12.38;;;9.77;;
40314;SDS011;26021;45.640;11.302;2022-07-23T05:39:23;9.98;;;8.98;;
40314;SDS011;26021;45.640;11.302;2022-07-23T05:41:48;11.65;;;9.23;;
40314;SDS011;26021;45.640;11.302;2022-07-23T05:44:14;9.93;;;9.02;;
40314;SDS011;26021;45.640;11.302;2022-07-23T05:46:39;9.75;;;8.75;;
40314;SDS011;26021;45.640;11.302;2022-07-23T05:49:05;10.32;;;9.02;;
40314;SDS011;26021;45.640;11.302;2022-07-23T05:51:30;10.32;;;9.32;;
40314;SDS011;26021;45.640;11.302;2022-07-23T05:53:56;10.85;;;9.68;;
40314;SDS011;26021;45.640;11.302;2022-07-23T05:56:21;11.63;;;9.80;;
40314;SDS011;26021;45.640;11.302;2022-07-23T05:58:47;10.55;;;9.52;;
40314;SDS011;26021;45.640;11.302;2022-07-23T06:01:12;10.98;;;9.32;;
40314;SDS011;26021;45.640;11.302;2022-07-23T06:03:38;11.60;;;10.25;;
40314;SDS011;26021;45.640;11.302;2022-07-23T06:06:04;10.68;;;9.60;;
40314;SDS011;26021;45.640;11.302;2022-07-23T06:08:30;11.35;;;9.95;;
40314;SDS011;26021;45.640;11.302;2022-07-23T06:10:55;11.57;;;10.38;;
40314;SDS011;26021;45.640;11.302;2022-07-23T06:13:21;12.45;;;9.80;;
40314;SDS011;26021;45.640;11.302;2022-07-23T06:15:47;11.45;;;10.18;;
40314;SDS011;26021;45.640;11.302;2022-07-23T06:18:13;10.63;;;9.63;;
40314;SDS011;26021;45.640;11.302;2022-07-23T06:20:38;11.25;;;10.15;;
40314;SDS011;26021;45.640;11.302;2022-07-23T06:23:04;10.90;;;9.70;;
40314;SDS011;26021;45.640;11.302;2022-07-23T06:25:29;12.23;;;10.30;;
40314;SDS011;26021;45.640;11.302;2022-07-23T06:27:55;14.73;;;10.85;;
40314;SDS011;26021;45.640;11.302;2022-07-23T06:30:20;16.02;;;11.02;;
40314;SDS011;26021;45.640;11.302;2022-07-23T06:32:46;13.38;;;11.98;;
40314;SDS011;26021;45.640;11.302;2022-07-23T06:35:12;12.15;;;11.02;;
40314;SDS011;26021;45.640;11.302;2022-07-23T06:37:38;14.48;;;12.68;;
40314;SDS011;26021;45.640;11.302;2022-07-23T06:40:03;16.33;;;12.82;;
40314;SDS011;26021;45.640;11.302;2022-07-23T06:42:29;14.02;;;12.70;;
40314;SDS011;26021;45.640;11.302;2022-07-23T06:44:55;13.80;;;12.38;;
40314;SDS011;26021;45.640;11.302;2022-07-23T06:47:20;13.43;;;12.13;;
40314;SDS011;26021;45.640;11.302;2022-07-23T06:49:46;13.27;;;11.93;;
40314;SDS011;26021;45.640;11.302;2022-07-23T06:52:11;12.45;;;10.85;;
40314;SDS011;26021;45.640;11.302;2022-07-23T06:54:37;11.95;;;10.52;;
40314;SDS011;26021;45.640;11.302;2022-07-23T06:57:02;11.55;;;10.43;;
40314;SDS011;26021;45.640;11.302;2022-07-23T06:59:28;12.63;;;11.20;;
40314;SDS011;26021;45.640;11.302;2022-07-23T07:01:54;13.32;;;12.00;;
40314;SDS011;26021;45.640;11.302;2022-07-23T07:04:19;15.38;;;12.60;;
40314;SDS011;26021;45.640;11.302;2022-07-23T07:06:44;15.35;;;11.88;;
40314;SDS011;26021;45.640;11.302;2022-07-23T07:09:10;14.85;;;10.88;;
40314;SDS011;26021;45.640;11.302;2022-07-23T07:11:35;12.88;;;11.80;;
40314;SDS011;26021;45.640;11.302;2022-07-23T07:14:01;14.18;;;11.25;;
40314;SDS011;26021;45.640;11.302;2022-07-23T07:16:26;14.60;;;12.05;;
40314;SDS011;26021;45.640;11.302;2022-07-23T07:18:52;13.20;;;11.73;;
40314;SDS011;26021;45.640;11.302;2022-07-23T07:21:17;12.52;;;11.35;;
40314;SDS011;26021;45.640;11.302;2022-07-23T07:23:43;13.55;;;11.35;;
40314;SDS011;26021;45.640;11.302;2022-07-23T07:26:08;12.25;;;11.02;;
40314;SDS011;26021;45.640;11.302;2022-07-23T07:28:33;13.88;;;10.95;;
40314;SDS011;26021;45.640;11.302;2022-07-23T07:30:59;12.65;;;11.35;;
40314;SDS011;26021;45.640;11.302;2022-07-23T07:33:25;16.92;;;12.13;;
40314;SDS011;26021;45.640;11.302;2022-07-23T07:35:50;13.63;;;12.15;;
40314;SDS011;26021;45.640;11.302;2022-07-23T07:38:16;13.85;;;12.18;;
40314;SDS011;26021;45.640;11.302;2022-07-23T07:40:41;13.18;;;11.77;;
40314;SDS011;26021;45.640;11.302;2022-07-23T07:43:07;13.23;;;11.95;;
40314;SDS011;26021;45.640;11.302;2022-07-23T07:45:32;19.75;;;11.98;;
40314;SDS011;26021;45.640;11.302;2022-07-23T07:47:58;15.75;;;12.38;;
40314;SDS011;26021;45.640;11.302;2022-07-23T07:50:23;13.55;;;12.13;;
40314;SDS011;26021;45.640;11.302;2022-07-23T07:52:49;13.63;;;12.18;;
40314;SDS011;26021;45.640;11.302;2022-07-23T07:55:14;14.25;;;12.77;;
40314;SDS011;26021;45.640;11.302;2022-07-23T07:57:40;13.07;;;11.73;;
40314;SDS011;26021;45.640;11.302;2022-07-23T08:00:07;13.23;;;12.05;;
40314;SDS011;26021;45.640;11.302;2022-07-23T08:02:44;13.70;;;12.00;;
40314;SDS011;26021;45.640;11.302;2022-07-23T08:05:11;13.48;;;11.85;;
40314;SDS011;26021;45.640;11.302;2022-07-23T08:07:37;13.57;;;12.15;;
40314;SDS011;26021;45.640;11.302;2022-07-23T08:10:05;13.88;;;12.48;;
40314;SDS011;26021;45.640;11.302;2022-07-23T08:12:48;14.57;;;12.15;;
40314;SDS011;26021;45.640;11.302;2022-07-23T08:15:17;12.88;;;11.65;;
40314;SDS011;26021;45.640;11.302;2022-07-23T08:17:44;12.88;;;11.30;;
40314;SDS011;26021;45.640;11.302;2022-07-23T08:20:11;13.02;;;11.48;;
40314;SDS011;26021;45.640;11.302;2022-07-23T08:22:44;19.23;;;14.07;;
40314;SDS011;26021;45.640;11.302;2022-07-23T08:25:15;13.43;;;11.60;;
40314;SDS011;26021;45.640;11.302;2022-07-23T08:27:41;13.10;;;11.82;;
40314;SDS011;26021;45.640;11.302;2022-07-23T08:30:07;13.10;;;11.73;;
40314;SDS011;26021;45.640;11.302;2022-07-23T08:32:33;13.45;;;11.65;;
40314;SDS011;26021;45.640;11.302;2022-07-23T08:35:12;12.15;;;11.13;;
40314;SDS011;26021;45.640;11.302;2022-07-23T08:37:37;12.77;;;11.48;;
40314;SDS011;26021;45.640;11.302;2022-07-23T08:40:03;13.63;;;12.32;;
40314;SDS011;26021;45.640;11.302;2022-07-23T08:42:28;15.23;;;12.00;;
40314;SDS011;26021;45.640;11.302;2022-07-23T08:44:54;15.38;;;12.73;;
40314;SDS011;26021;45.640;11.302;2022-07-23T08:47:19;13.23;;;11.93;;
40314;SDS011;26021;45.640;11.302;2022-07-23T08:49:45;13.55;;;12.15;;
40314;SDS011;26021;45.640;11.302;2022-07-23T08:52:11;16.98;;;11.75;;
40314;SDS011;26021;45.640;11.302;2022-07-23T08:54:37;13.75;;;11.98;;
40314;SDS011;26021;45.640;11.302;2022-07-23T08:57:03;13.27;;;10.88;;
40314;SDS011;26021;45.640;11.302;2022-07-23T08:59:28;14.85;;;12.02;;
40314;SDS011;26021;45.640;11.302;2022-07-23T09:01:54;12.55;;;11.10;;
40314;SDS011;26021;45.640;11.302;2022-07-23T09:04:19;12.32;;;10.98;;
40314;SDS011;26021;45.640;11.302;2022-07-23T09:06:45;12.15;;;10.90;;
40314;SDS011;26021;45.640;11.302;2022-07-23T09:09:20;12.48;;;10.63;;
40314;SDS011;26021;45.640;11.302;2022-07-23T09:11:46;15.50;;;11.27;;
40314;SDS011;26021;45.640;11.302;2022-07-23T09:19:36;13.52;;;10.75;;
40314;SDS011;26021;45.640;11.302;2022-07-23T09:22:21;12.82;;;11.57;;
40314;SDS011;26021;45.640;11.302;2022-07-23T09:27:45;13.48;;;10.98;;
40314;SDS011;26021;45.640;11.302;2022-07-23T09:30:11;12.20;;;10.93;;
40314;SDS011;26021;45.640;11.302;2022-07-23T09:32:37;12.00;;;10.80;;
40314;SDS011;26021;45.640;11.302;2022-07-23T09:35:04;13.98;;;11.00;;
40314;SDS011;26021;45.640;11.302;2022-07-23T09:37:29;12.88;;;10.63;;
40314;SDS011;26021;45.640;11.302;2022-07-23T09:40:02;12.05;;;10.75;;
40314;SDS011;26021;45.640;11.302;2022-07-23T09:42:32;11.63;;;10.60;;
40314;SDS011;26021;45.640;11.302;2022-07-23T09:44:58;10.57;;;9.18;;
40314;SDS011;26021;45.640;11.302;2022-07-23T09:47:27;11.73;;;9.32;;
40314;SDS011;26021;45.640;11.302;2022-07-23T09:52:31;9.35;;;8.45;;
40314;SDS011;26021;45.640;11.302;2022-07-23T09:54:58;10.02;;;9.02;;
40314;SDS011;26021;45.640;11.302;2022-07-23T09:57:25;8.73;;;6.85;;
40314;SDS011;26021;45.640;11.302;2022-07-23T09:59:52;7.35;;;6.65;;
40314;SDS011;26021;45.640;11.302;2022-07-23T10:02:18;10.02;;;7.53;;
40314;SDS011;26021;45.640;11.302;2022-07-23T10:04:44;9.18;;;7.38;;
40314;SDS011;26021;45.640;11.302;2022-07-23T10:07:11;14.40;;;7.65;;
40314;SDS011;26021;45.640;11.302;2022-07-23T10:09:42;9.80;;;8.93;;
40314;SDS011;26021;45.640;11.302;2022-07-23T10:12:12;13.70;;;9.85;;
40314;SDS011;26021;45.640;11.302;2022-07-23T10:14:48;10.00;;;8.95;;
40314;SDS011;26021;45.640;11.302;2022-07-23T10:17:14;11.55;;;9.65;;
40314;SDS011;26021;45.640;11.302;2022-07-23T10:19:39;11.32;;;9.07;;
40314;SDS011;26021;45.640;11.302;2022-07-23T10:22:10;9.88;;;7.53;;
40314;SDS011;26021;45.640;11.302;2022-07-23T10:39:04;11.18;;;9.93;;
40314;SDS011;26021;45.640;11.302;2022-07-23T10:41:34;11.13;;;10.02;;
40314;SDS011;26021;45.640;11.302;2022-07-23T10:44:07;11.82;;;9.88;;
40314;SDS011;26021;45.640;11.302;2022-07-23T10:49:44;10.23;;;9.40;;
40314;SDS011;26021;45.640;11.302;2022-07-23T10:52:22;10.38;;;9.25;;
40314;SDS011;26021;45.640;11.302;2022-07-23T10:54:56;9.13;;;8.05;;
40314;SDS011;26021;45.640;11.302;2022-07-23T10:57:47;9.60;;;8.32;;
40314;SDS011;26021;45.640;11.302;2022-07-23T11:00:20;10.13;;;8.90;;
40314;SDS011;26021;45.640;11.302;2022-07-23T11:02:48;9.20;;;8.40;;
40314;SDS011;26021;45.640;11.302;2022-07-23T11:05:17;10.48;;;9.38;;
40314;SDS011;26021;45.640;11.302;2022-07-23T11:16:07;12.82;;;9.40;;
40314;SDS011;26021;45.640;11.302;2022-07-23T11:36:58;9.40;;;7.97;;
40314;SDS011;26021;45.640;11.302;2022-07-23T11:39:28;11.95;;;7.65;;
40314;SDS011;26021;45.640;11.302;2022-07-23T11:41:55;11.32;;;9.00;;
40314;SDS011;26021;45.640;11.302;2022-07-23T11:44:28;9.18;;;8.35;;
40314;SDS011;26021;45.640;11.302;2022-07-23T11:46:55;8.43;;;7.57;;
40314;SDS011;26021;45.640;11.302;2022-07-23T11:49:25;9.50;;;8.50;;
40314;SDS011;26021;45.640;11.302;2022-07-23T11:52:04;8.10;;;7.30;;
40314;SDS011;26021;45.640;11.302;2022-07-23T11:54:33;9.98;;;8.80;;
40314;SDS011;26021;45.640;11.302;2022-07-23T11:57:00;9.88;;;8.90;;
40314;SDS011;26021;45.640;11.302;2022-07-23T11:59:27;9.65;;;8.43;;
40314;SDS011;26021;45.640;11.302;2022-07-23T12:01:59;9.80;;;8.82;;
40314;SDS011;26021;45.640;11.302;2022-07-23T12:04:39;10.70;;;8.85;;
40314;SDS011;26021;45.640;11.302;2022-07-23T12:07:25;9.68;;;8.77;;
40314;SDS011;26021;45.640;11.302;2022-07-23T12:12:59;10.45;;;8.63;;
40314;SDS011;26021;45.640;11.302;2022-07-23T12:15:25;9.90;;;9.00;;
40314;SDS011;26021;45.640;11.302;2022-07-23T12:17:57;10.27;;;9.37;;
40314;SDS011;26021;45.640;11.302;2022-07-23T12:20:26;10.02;;;9.13;;
40314;SDS011;26021;45.640;11.302;2022-07-23T12:22:56;11.02;;;8.93;;
40314;SDS011;26021;45.640;11.302;2022-07-23T12:25:24;11.82;;;10.63;;
40314;SDS011;26021;45.640;11.302;2022-07-23T12:28:08;11.77;;;9.80;;
40314;SDS011;26021;45.640;11.302;2022-07-23T12:30:44;10.13;;;9.10;;
40314;SDS011;26021;45.640;11.302;2022-07-23T12:33:10;9.50;;;8.75;;
40314;SDS011;26021;45.640;11.302;2022-07-23T12:35:45;9.82;;;8.43;;
40314;SDS011;26021;45.640;11.302;2022-07-23T12:38:15;9.77;;;8.82;;
40314;SDS011;26021;45.640;11.302;2022-07-23T12:40:46;9.32;;;8.43;;
40314;SDS011;26021;45.640;11.302;2022-07-23T12:43:29;9.40;;;8.57;;
40314;SDS011;26021;45.640;11.302;2022-07-23T12:46:04;10.13;;;9.13;;
40314;SDS011;26021;45.640;11.302;2022-07-23T12:48:30;11.63;;;10.20;;
40314;SDS011;26021;45.640;11.302;2022-07-23T12:51:00;10.68;;;9.68;;
40314;SDS011;26021;45.640;11.302;2022-07-23T12:53:29;10.85;;;9.85;;
40314;SDS011;26021;45.640;11.302;2022-07-23T12:56:05;12.18;;;9.27;;
40314;SDS011;26021;45.640;11.302;2022-07-23T12:58:57;10.15;;;9.25;;
40314;SDS011;26021;45.640;11.302;2022-07-23T13:01:33;12.50;;;10.20;;
40314;SDS011;26021;45.640;11.302;2022-07-23T13:04:01;17.10;;;10.52;;
40314;SDS011;26021;45.640;11.302;2022-07-23T13:06:29;12.07;;;10.88;;
40314;SDS011;26021;45.640;11.302;2022-07-23T13:09:19;12.32;;;10.02;;
40314;SDS011;26021;45.640;11.302;2022-07-23T13:11:46;11.88;;;10.27;;
40314;SDS011;26021;45.640;11.302;2022-07-23T13:14:14;12.00;;;10.80;;
40314;SDS011;26021;45.640;11.302;2022-07-23T13:16:41;12.38;;;11.18;;
40314;SDS011;26021;45.640;11.302;2022-07-23T13:19:07;12.63;;;10.70;;
40314;SDS011;26021;45.640;11.302;2022-07-23T13:21:32;11.65;;;10.45;;
40314;SDS011;26021;45.640;11.302;2022-07-23T13:23:58;11.27;;;10.25;;
40314;SDS011;26021;45.640;11.302;2022-07-23T13:26:24;12.57;;;11.20;;
40314;SDS011;26021;45.640;11.302;2022-07-23T13:28:50;14.40;;;10.15;;
40314;SDS011;26021;45.640;11.302;2022-07-23T13:31:16;11.35;;;9.98;;
40314;SDS011;26021;45.640;11.302;2022-07-23T13:33:41;11.30;;;10.40;;
40314;SDS011;26021;45.640;11.302;2022-07-23T13:36:07;10.95;;;9.35;;
40314;SDS011;26021;45.640;11.302;2022-07-23T13:38:32;10.23;;;9.02;;
40314;SDS011;26021;45.640;11.302;2022-07-23T13:40:58;13.38;;;8.95;;
40314;SDS011;26021;45.640;11.302;2022-07-23T13:43:24;10.48;;;9.48;;
40314;SDS011;26021;45.640;11.302;2022-07-23T13:45:50;15.60;;;9.35;;
40314;SDS011;26021;45.640;11.302;2022-07-23T13:48:17;14.88;;;9.02;;
40314;SDS011;26021;45.640;11.302;2022-07-23T13:50:43;12.07;;;8.48;;
40314;SDS011;26021;45.640;11.302;2022-07-23T13:53:10;16.52;;;8.35;;
40314;SDS011;26021;45.640;11.302;2022-07-23T13:55:38;9.70;;;8.75;;
40314;SDS011;26021;45.640;11.302;2022-07-23T13:58:05;10.10;;;8.52;;
40314;SDS011;26021;45.640;11.302;2022-07-23T14:00:31;9.70;;;8.60;;
40314;SDS011;26021;45.640;11.302;2022-07-23T14:02:58;13.05;;;9.52;;
40314;SDS011;26021;45.640;11.302;2022-07-23T14:05:24;9.82;;;8.43;;
40314;SDS011;26021;45.640;11.302;2022-07-23T14:07:50;10.68;;;8.60;;
40314;SDS011;26021;45.640;11.302;2022-07-23T14:10:17;9.00;;;8.10;;
40314;SDS011;26021;45.640;11.302;2022-07-23T14:12:43;10.05;;;7.65;;
40314;SDS011;26021;45.640;11.302;2022-07-23T14:15:10;9.20;;;7.72;;
40314;SDS011;26021;45.640;11.302;2022-07-23T14:17:36;13.68;;;7.90;;
40314;SDS011;26021;45.640;11.302;2022-07-23T14:20:03;9.15;;;7.57;;
40314;SDS011;26021;45.640;11.302;2022-07-23T14:22:30;10.27;;;7.53;;
40314;SDS011;26021;45.640;11.302;2022-07-23T14:24:55;11.68;;;7.00;;
40314;SDS011;26021;45.640;11.302;2022-07-23T14:27:22;14.15;;;7.55;;
40314;SDS011;26021;45.640;11.302;2022-07-23T14:29:48;14.48;;;7.65;;
40314;SDS011;26021;45.640;11.302;2022-07-23T14:32:14;9.48;;;7.57;;
40314;SDS011;26021;45.640;11.302;2022-07-23T14:34:39;10.18;;;7.93;;
40314;SDS011;26021;45.640;11.302;2022-07-23T14:37:05;10.82;;;8.55;;
40314;SDS011;26021;45.640;11.302;2022-07-23T14:39:30;12.60;;;8.18;;
40314;SDS011;26021;45.640;11.302;2022-07-23T14:41:56;8.98;;;8.07;;
40314;SDS011;26021;45.640;11.302;2022-07-23T14:44:21;8.50;;;7.65;;
40314;SDS011;26021;45.640;11.302;2022-07-23T14:46:47;10.77;;;8.27;;
40314;SDS011;26021;45.640;11.302;2022-07-23T14:49:12;9.23;;;8.32;;
40314;SDS011;26021;45.640;11.302;2022-07-23T14:51:38;10.35;;;8.77;;
40314;SDS011;26021;45.640;11.302;2022-07-23T14:54:04;10.30;;;8.80;;
40314;SDS011;26021;45.640;11.302;2022-07-23T14:56:30;10.75;;;9.10;;
40314;SDS011;26021;45.640;11.302;2022-07-23T14:58:55;12.70;;;8.82;;
40314;SDS011;26021;45.640;11.302;2022-07-23T15:01:21;10.02;;;9.00;;
40314;SDS011;26021;45.640;11.302;2022-07-23T15:03:48;12.60;;;8.13;;
40314;SDS011;26021;45.640;11.302;2022-07-23T15:06:15;10.50;;;8.98;;
40314;SDS011;26021;45.640;11.302;2022-07-23T15:08:40;9.25;;;8.30;;
40314;SDS011;26021;45.640;11.302;2022-07-23T15:11:06;10.50;;;8.65;;
40314;SDS011;26021;45.640;11.302;2022-07-23T15:13:34;10.15;;;9.15;;
40314;SDS011;26021;45.640;11.302;2022-07-23T15:15:59;13.73;;;8.23;;
40314;SDS011;26021;45.640;11.302;2022-07-23T15:18:25;11.02;;;9.85;;